createdAt,value
2019-05-18T00:03:38.339Z,12.49
2019-05-18T00:08:41.729Z,12.47
2019-05-18T00:13:45.126Z,12.36
2019-05-18T00:18:48.594Z,12.43
2019-05-18T00:23:52.230Z,12.42
2019-05-18T00:28:56.386Z,12.38
2019-05-18T00:33:59.777Z,12.23
2019-05-18T00:39:04.450Z,12.28
2019-05-18T00:44:07.847Z,12.36
2019-05-18T00:49:11.240Z,12.29
2019-05-18T00:54:14.737Z,12.16
2019-05-18T00:59:18.201Z,12.06
2019-05-18T01:04:21.661Z,12.01
2019-05-18T01:09:25.069Z,11.85
2019-05-18T01:14:28.685Z,11.84
2019-05-18T01:19:32.080Z,11.82
2019-05-18T01:24:35.478Z,11.61
2019-05-18T01:29:38.946Z,11.60
2019-05-18T01:34:42.368Z,11.59
2019-05-18T01:39:46.033Z,11.53
2019-05-18T01:44:49.661Z,11.48
2019-05-18T01:49:53.385Z,11.28
2019-05-18T01:54:56.783Z,11.21
2019-05-18T02:00:00.210Z,11.27
2019-05-18T02:05:04.674Z,10.88
2019-05-18T02:10:08.605Z,10.90
2019-05-18T02:15:12.331Z,11.00
2019-05-18T02:20:16.757Z,10.75
2019-05-18T02:25:21.053Z,10.62
2019-05-18T02:30:24.697Z,10.35
2019-05-18T02:35:28.093Z,10.25
2019-05-18T02:40:31.825Z,10.05
2019-05-18T02:45:35.221Z,10.02
2019-05-18T02:50:38.620Z,10.18
2019-05-18T02:55:42.014Z,10.34
2019-05-18T03:00:45.431Z,10.29
2019-05-18T03:05:48.898Z,10.20
2019-05-18T03:10:52.825Z,10.35
2019-05-18T03:15:56.218Z,10.11
2019-05-18T03:21:00.090Z,10.14
2019-05-18T03:26:03.506Z,10.13
2019-05-18T03:31:06.880Z,10.05
2019-05-18T03:36:10.373Z,10.19
2019-05-18T03:41:13.850Z,9.88
2019-05-18T03:46:17.336Z,9.98
2019-05-18T03:51:20.782Z,10.16
2019-05-18T03:56:24.125Z,10.08
2019-05-18T04:01:27.608Z,10.08
2019-05-18T04:06:31.026Z,10.09
2019-05-18T04:11:34.418Z,10.15
2019-05-18T04:16:38.149Z,10.26
2019-05-18T04:21:41.893Z,10.14
2019-05-18T04:26:45.313Z,10.07
2019-05-18T04:31:48.701Z,10.13
2019-05-18T04:36:52.132Z,10.28
2019-05-18T04:41:55.521Z,10.41
2019-05-18T04:46:59.225Z,10.46
2019-05-18T04:52:02.971Z,10.56
2019-05-18T04:57:06.596Z,10.51
2019-05-18T05:02:10.011Z,10.72
2019-05-18T05:07:13.497Z,10.95
2019-05-18T05:12:16.889Z,11.17
2019-05-18T05:17:20.357Z,11.38
2019-05-18T05:22:23.809Z,11.54
2019-05-18T05:27:27.195Z,11.68
2019-05-18T05:32:30.873Z,11.84
2019-05-18T05:37:34.318Z,12.02
2019-05-18T05:42:37.753Z,12.15
2019-05-18T05:47:41.148Z,12.25
2019-05-18T05:52:44.842Z,12.39
2019-05-18T05:57:48.230Z,12.47
2019-05-18T06:02:51.633Z,12.53
2019-05-18T06:07:55.079Z,12.72
2019-05-18T06:12:58.513Z,12.86
2019-05-18T06:18:01.900Z,12.94
2019-05-18T06:23:05.295Z,13.06
2019-05-18T06:28:08.690Z,13.24
2019-05-18T06:33:12.463Z,13.31
2019-05-18T06:38:15.849Z,13.41
2019-05-18T06:43:19.281Z,13.56
2019-05-18T06:48:22.691Z,13.72
2019-05-18T06:53:26.086Z,13.89
2019-05-18T06:58:30.221Z,14.02
2019-05-18T07:03:33.687Z,14.13
2019-05-18T07:08:37.058Z,14.33
2019-05-18T07:13:40.491Z,14.33
2019-05-18T07:18:43.883Z,14.46
2019-05-18T07:23:47.377Z,14.59
2019-05-18T07:28:50.809Z,14.73
2019-05-18T07:33:54.234Z,14.73
2019-05-18T07:38:57.630Z,15.00
2019-05-18T07:44:01.079Z,15.18
2019-05-18T07:49:04.574Z,15.16
2019-05-18T07:54:08.015Z,15.39
2019-05-18T07:59:11.439Z,15.53
2019-05-18T08:04:14.871Z,15.71
2019-05-18T08:09:18.546Z,15.86
2019-05-18T08:14:22.027Z,16.00
2019-05-18T08:19:25.440Z,16.21
2019-05-18T08:24:28.815Z,16.52
2019-05-18T08:29:32.215Z,16.70
2019-05-18T08:34:35.649Z,16.72
2019-05-18T08:39:39.066Z,16.93
2019-05-18T08:44:42.965Z,17.42
2019-05-18T08:49:46.678Z,17.35
2019-05-18T08:54:50.109Z,17.64
2019-05-18T08:59:53.502Z,17.99
2019-05-18T09:04:56.892Z,18.35
2019-05-18T09:10:00.289Z,18.54
2019-05-18T09:15:05.458Z,18.55
2019-05-18T09:20:09.517Z,18.79
2019-05-18T09:25:14.789Z,19.22
2019-05-18T09:30:18.535Z,19.38
2019-05-18T09:35:21.961Z,19.21
2019-05-18T09:40:25.353Z,19.38
2019-05-18T09:45:28.778Z,19.39
2019-05-18T09:50:32.478Z,19.66
2019-05-18T09:55:35.877Z,20.01
2019-05-18T10:00:39.347Z,19.95
2019-05-18T10:05:43.019Z,20.00
2019-05-18T10:10:46.765Z,20.50
2019-05-18T10:15:50.194Z,20.66
2019-05-18T10:20:53.879Z,20.81
2019-05-18T10:25:57.313Z,21.23
2019-05-18T10:31:01.010Z,21.53
2019-05-18T10:36:05.021Z,20.91
2019-05-18T10:41:08.583Z,21.15
2019-05-18T10:46:11.988Z,21.46
2019-05-18T10:51:15.391Z,21.77
2019-05-18T10:56:19.018Z,21.47
2019-05-18T11:01:22.417Z,21.49
2019-05-18T11:06:25.803Z,21.65
2019-05-18T11:11:29.549Z,22.22
2019-05-18T11:16:33.013Z,22.24
2019-05-18T11:21:36.433Z,22.41
2019-05-18T11:26:39.920Z,22.81
2019-05-18T11:31:43.308Z,22.92
2019-05-18T11:36:46.701Z,23.00
2019-05-18T11:41:50.104Z,23.01
2019-05-18T11:46:53.767Z,23.45
2019-05-18T11:51:57.490Z,23.83
2019-05-18T11:57:00.908Z,23.97
2019-05-18T12:02:04.550Z,24.02
2019-05-18T12:07:08.061Z,23.98
2019-05-18T12:12:11.451Z,24.12
2019-05-18T12:17:14.935Z,24.25
2019-05-18T12:22:18.311Z,24.23
2019-05-18T12:27:21.708Z,24.42
2019-05-18T12:32:25.133Z,24.75
2019-05-18T12:37:28.529Z,24.78
2019-05-18T12:42:31.920Z,24.39
2019-05-18T12:47:35.482Z,24.33
2019-05-18T12:52:38.874Z,23.87
2019-05-18T12:57:42.264Z,24.28
2019-05-18T13:02:45.690Z,24.29
2019-05-18T13:07:49.091Z,24.35
2019-05-18T13:12:52.486Z,24.16
2019-05-18T13:17:55.879Z,23.78
2019-05-18T13:22:59.376Z,23.96
2019-05-18T13:28:02.781Z,24.16
2019-05-18T13:33:06.177Z,23.88
2019-05-18T13:38:09.564Z,23.83
2019-05-18T13:43:12.965Z,23.67
2019-05-18T13:48:16.393Z,23.71
2019-05-18T13:53:19.847Z,23.71
2019-05-18T13:58:23.238Z,24.03
2019-05-18T14:03:26.629Z,24.31
2019-05-18T14:08:30.058Z,23.97
2019-05-18T14:13:33.533Z,23.68
2019-05-18T14:18:37.310Z,23.47
2019-05-18T14:23:41.014Z,22.94
2019-05-18T14:28:44.446Z,22.72
2019-05-18T14:33:47.873Z,22.63
2019-05-18T14:38:51.311Z,22.51
2019-05-18T14:43:54.744Z,22.48
2019-05-18T14:48:58.152Z,22.41
2019-05-18T14:54:01.578Z,22.52
2019-05-18T14:59:05.071Z,22.73
2019-05-18T15:04:08.461Z,23.00
2019-05-18T15:09:11.886Z,23.32
2019-05-18T15:14:15.850Z,23.52
2019-05-18T15:19:19.274Z,23.66
2019-05-18T15:24:23.008Z,23.67
2019-05-18T15:29:26.406Z,23.90
2019-05-18T15:34:29.833Z,23.95
2019-05-18T15:39:33.230Z,24.06
2019-05-18T15:44:36.968Z,24.12
2019-05-18T15:49:40.356Z,24.17
2019-05-18T15:54:43.759Z,24.36
2019-05-18T15:59:47.178Z,24.13
2019-05-18T16:04:50.689Z,24.23
2019-05-18T16:09:54.064Z,24.16
2019-05-18T16:14:57.781Z,24.01
2019-05-18T16:20:01.214Z,24.17
2019-05-18T16:25:06.649Z,24.17
2019-05-18T16:30:11.774Z,24.24
2019-05-18T16:35:15.606Z,24.43
2019-05-18T16:40:20.080Z,24.63
2019-05-18T16:45:23.474Z,24.53
2019-05-18T16:50:26.880Z,24.36
2019-05-18T16:55:30.365Z,24.22
2019-05-18T17:00:33.790Z,24.12
2019-05-18T17:05:37.256Z,24.14
2019-05-18T17:10:40.970Z,24.20
2019-05-18T17:15:45.498Z,23.97
2019-05-18T17:20:48.942Z,23.86
2019-05-18T17:25:52.352Z,23.98
2019-05-18T17:30:55.784Z,23.69
2019-05-18T17:36:00.638Z,23.49
2019-05-18T17:41:04.469Z,23.39
2019-05-18T17:46:07.927Z,23.44
2019-05-18T17:51:11.317Z,23.59
2019-05-18T17:56:14.779Z,23.52
2019-05-18T18:01:18.178Z,23.36
2019-05-18T18:06:21.601Z,23.08
2019-05-18T18:11:25.476Z,22.82
2019-05-18T18:16:29.119Z,22.56
2019-05-18T18:21:32.522Z,22.26
2019-05-18T18:26:35.988Z,21.87
2019-05-18T18:31:39.415Z,21.38
2019-05-18T18:36:42.843Z,21.05
2019-05-18T18:41:46.224Z,20.85
2019-05-18T18:46:49.621Z,20.52
2019-05-18T18:51:53.007Z,19.96
2019-05-18T18:56:56.466Z,19.74
2019-05-18T19:01:59.898Z,19.35
2019-05-18T19:07:03.295Z,19.14
2019-05-18T19:12:06.708Z,19.04
2019-05-18T19:17:10.105Z,18.90
2019-05-18T19:22:13.517Z,18.64
2019-05-18T19:27:16.901Z,18.52
2019-05-18T19:32:20.299Z,18.31
2019-05-18T19:37:26.368Z,18.04
2019-05-18T19:42:28.825Z,17.77
2019-05-18T19:47:32.255Z,17.66
2019-05-18T19:52:35.754Z,17.42
2019-05-18T19:57:39.120Z,17.07
2019-05-18T20:02:42.590Z,16.58
2019-05-18T20:07:46.007Z,16.36
2019-05-18T20:12:49.569Z,16.12
2019-05-18T20:17:53.001Z,16.26
2019-05-18T20:22:56.725Z,16.35
2019-05-18T20:28:00.123Z,16.38
2019-05-18T20:33:03.533Z,16.36
2019-05-18T20:38:06.926Z,16.27
2019-05-18T20:43:10.318Z,16.25
2019-05-18T20:48:16.807Z,16.17
2019-05-18T20:53:18.858Z,16.03
2019-05-18T20:58:22.281Z,16.12
2019-05-18T21:03:25.718Z,16.18
2019-05-18T21:08:29.126Z,16.20
2019-05-18T21:13:32.517Z,16.22
2019-05-18T21:18:36.235Z,16.15
2019-05-18T21:23:39.706Z,16.16
2019-05-18T21:28:56.207Z,16.12
2019-05-18T21:33:49.026Z,15.93
2019-05-18T21:38:52.753Z,15.89
2019-05-18T21:43:56.144Z,15.79
2019-05-18T21:48:59.551Z,15.55
2019-05-18T21:54:03.023Z,15.42
2019-05-18T21:59:11.606Z,15.42
2019-05-18T22:04:11.661Z,15.37
2019-05-18T22:09:15.053Z,15.29
2019-05-18T22:14:18.817Z,15.21
2019-05-18T22:19:22.630Z,14.91
2019-05-18T22:24:26.340Z,14.62
2019-05-18T22:29:29.736Z,14.61
2019-05-18T22:34:33.194Z,14.61
2019-05-18T22:39:37.752Z,14.62
2019-05-18T22:44:41.164Z,14.64
2019-05-18T22:49:44.611Z,14.48
2019-05-18T22:54:47.983Z,14.28
2019-05-18T22:59:51.366Z,14.16
2019-05-18T23:04:54.812Z,14.13
2019-05-18T23:09:58.528Z,13.99
2019-05-18T23:15:01.949Z,13.78
2019-05-18T23:20:06.376Z,13.84
2019-05-18T23:25:10.213Z,13.95
2019-05-18T23:30:13.936Z,13.99
2019-05-18T23:35:17.417Z,13.90
2019-05-18T23:40:20.889Z,13.92
2019-05-18T23:45:24.462Z,13.56
2019-05-18T23:50:27.892Z,13.49
2019-05-18T23:55:31.353Z,13.49
